sensor_id;sensor_type;location;lat;lon;timestamp;P1;durP1;ratioP1;P2;durP2;ratioP2
39896;SDS011;25567;48.276;14.242;2022-07-06T00:01:12;16.90;;;7.88;;
39896;SDS011;25567;48.276;14.242;2022-07-06T00:03:38;15.68;;;8.50;;
39896;SDS011;25567;48.276;14.242;2022-07-06T00:06:05;12.68;;;7.90;;
39896;SDS011;25567;48.276;14.242;2022-07-06T00:08:32;20.13;;;7.95;;
39896;SDS011;25567;48.276;14.242;2022-07-06T00:10:59;14.45;;;8.30;;
39896;SDS011;25567;48.276;14.242;2022-07-06T00:13:27;18.30;;;9.70;;
39896;SDS011;25567;48.276;14.242;2022-07-06T00:15:54;13.20;;;7.93;;
39896;SDS011;25567;48.276;14.242;2022-07-06T00:18:21;17.98;;;8.20;;
39896;SDS011;25567;48.276;14.242;2022-07-06T00:20:48;17.30;;;8.60;;
39896;SDS011;25567;48.276;14.242;2022-07-06T00:23:14;12.00;;;7.63;;
39896;SDS011;25567;48.276;14.242;2022-07-06T00:25:41;14.85;;;8.32;;
39896;SDS011;25567;48.276;14.242;2022-07-06T00:31:07;13.32;;;7.50;;
39896;SDS011;25567;48.276;14.242;2022-07-06T00:33:34;16.30;;;7.45;;
39896;SDS011;25567;48.276;14.242;2022-07-06T00:36:00;24.90;;;8.13;;
39896;SDS011;25567;48.276;14.242;2022-07-06T00:38:27;18.60;;;7.55;;
39896;SDS011;25567;48.276;14.242;2022-07-06T00:40:54;16.23;;;8.18;;
39896;SDS011;25567;48.276;14.242;2022-07-06T00:43:21;14.65;;;7.80;;
39896;SDS011;25567;48.276;14.242;2022-07-06T00:45:48;14.40;;;9.02;;
39896;SDS011;25567;48.276;14.242;2022-07-06T00:48:14;24.75;;;8.40;;
39896;SDS011;25567;48.276;14.242;2022-07-06T00:50:41;16.48;;;8.40;;
39896;SDS011;25567;48.276;14.242;2022-07-06T00:53:08;18.42;;;9.40;;
39896;SDS011;25567;48.276;14.242;2022-07-06T00:55:38;24.23;;;9.02;;
39896;SDS011;25567;48.276;14.242;2022-07-06T00:58:06;20.67;;;9.02;;
39896;SDS011;25567;48.276;14.242;2022-07-06T01:00:34;19.50;;;9.02;;
39896;SDS011;25567;48.276;14.242;2022-07-06T01:03:01;18.48;;;9.25;;
39896;SDS011;25567;48.276;14.242;2022-07-06T01:05:29;16.35;;;9.18;;
39896;SDS011;25567;48.276;14.242;2022-07-06T01:07:56;26.95;;;8.20;;
39896;SDS011;25567;48.276;14.242;2022-07-06T01:10:26;31.88;;;8.60;;
39896;SDS011;25567;48.276;14.242;2022-07-06T01:12:52;24.80;;;8.90;;
39896;SDS011;25567;48.276;14.242;2022-07-06T01:15:21;19.58;;;9.57;;
39896;SDS011;25567;48.276;14.242;2022-07-06T01:17:50;16.85;;;9.05;;
39896;SDS011;25567;48.276;14.242;2022-07-06T01:20:18;14.65;;;8.88;;
39896;SDS011;25567;48.276;14.242;2022-07-06T01:22:48;28.17;;;9.18;;
39896;SDS011;25567;48.276;14.242;2022-07-06T01:25:16;13.65;;;9.15;;
39896;SDS011;25567;48.276;14.242;2022-07-06T01:27:45;25.73;;;9.45;;
39896;SDS011;25567;48.276;14.242;2022-07-06T01:30:16;20.45;;;9.07;;
39896;SDS011;25567;48.276;14.242;2022-07-06T01:32:44;21.60;;;9.18;;
39896;SDS011;25567;48.276;14.242;2022-07-06T01:35:13;14.32;;;8.20;;
39896;SDS011;25567;48.276;14.242;2022-07-06T01:37:41;25.35;;;9.45;;
39896;SDS011;25567;48.276;14.242;2022-07-06T01:40:09;21.55;;;9.05;;
39896;SDS011;25567;48.276;14.242;2022-07-06T01:42:37;24.30;;;9.13;;
39896;SDS011;25567;48.276;14.242;2022-07-06T01:45:04;25.73;;;9.75;;
39896;SDS011;25567;48.276;14.242;2022-07-06T01:47:32;23.98;;;9.35;;
39896;SDS011;25567;48.276;14.242;2022-07-06T01:50:00;19.13;;;9.38;;
39896;SDS011;25567;48.276;14.242;2022-07-06T01:52:29;18.15;;;9.15;;
39896;SDS011;25567;48.276;14.242;2022-07-06T01:54:56;22.65;;;9.60;;
39896;SDS011;25567;48.276;14.242;2022-07-06T01:57:23;26.58;;;10.18;;
39896;SDS011;25567;48.276;14.242;2022-07-06T01:59:50;23.80;;;9.80;;
39896;SDS011;25567;48.276;14.242;2022-07-06T02:02:17;25.27;;;10.93;;
39896;SDS011;25567;48.276;14.242;2022-07-06T02:04:44;23.77;;;10.25;;
39896;SDS011;25567;48.276;14.242;2022-07-06T02:07:11;29.30;;;10.43;;
39896;SDS011;25567;48.276;14.242;2022-07-06T02:09:38;17.65;;;9.88;;
39896;SDS011;25567;48.276;14.242;2022-07-06T02:12:05;28.85;;;9.57;;
39896;SDS011;25567;48.276;14.242;2022-07-06T02:14:32;21.98;;;9.68;;
39896;SDS011;25567;48.276;14.242;2022-07-06T02:16:58;14.35;;;8.85;;
39896;SDS011;25567;48.276;14.242;2022-07-06T02:19:26;19.58;;;8.98;;
39896;SDS011;25567;48.276;14.242;2022-07-06T02:21:53;24.95;;;10.02;;
39896;SDS011;25567;48.276;14.242;2022-07-06T02:24:20;29.92;;;9.13;;
39896;SDS011;25567;48.276;14.242;2022-07-06T02:26:47;19.23;;;8.63;;
39896;SDS011;25567;48.276;14.242;2022-07-06T02:29:14;15.98;;;9.48;;
39896;SDS011;25567;48.276;14.242;2022-07-06T02:31:40;17.02;;;9.18;;
39896;SDS011;25567;48.276;14.242;2022-07-06T02:34:09;21.00;;;8.52;;
39896;SDS011;25567;48.276;14.242;2022-07-06T02:36:36;20.60;;;9.07;;
39896;SDS011;25567;48.276;14.242;2022-07-06T02:39:03;17.25;;;9.95;;
39896;SDS011;25567;48.276;14.242;2022-07-06T02:41:30;16.35;;;9.15;;
39896;SDS011;25567;48.276;14.242;2022-07-06T02:43:56;22.13;;;9.38;;
39896;SDS011;25567;48.276;14.242;2022-07-06T02:46:23;24.15;;;9.38;;
39896;SDS011;25567;48.276;14.242;2022-07-06T02:48:50;23.45;;;9.48;;
39896;SDS011;25567;48.276;14.242;2022-07-06T02:51:16;25.10;;;9.20;;
39896;SDS011;25567;48.276;14.242;2022-07-06T02:53:43;20.02;;;8.88;;
39896;SDS011;25567;48.276;14.242;2022-07-06T02:56:10;26.02;;;8.77;;
39896;SDS011;25567;48.276;14.242;2022-07-06T02:58:36;19.17;;;8.18;;
39896;SDS011;25567;48.276;14.242;2022-07-06T03:01:03;27.95;;;10.02;;
39896;SDS011;25567;48.276;14.242;2022-07-06T03:03:30;23.63;;;9.52;;
39896;SDS011;25567;48.276;14.242;2022-07-06T03:05:57;12.40;;;8.32;;
39896;SDS011;25567;48.276;14.242;2022-07-06T03:08:24;24.38;;;9.32;;
39896;SDS011;25567;48.276;14.242;2022-07-06T03:10:51;19.85;;;10.43;;
39896;SDS011;25567;48.276;14.242;2022-07-06T03:13:18;34.28;;;9.43;;
39896;SDS011;25567;48.276;14.242;2022-07-06T03:15:45;23.35;;;8.80;;
39896;SDS011;25567;48.276;14.242;2022-07-06T03:18:11;21.85;;;8.38;;
39896;SDS011;25567;48.276;14.242;2022-07-06T03:20:38;21.10;;;8.50;;
39896;SDS011;25567;48.276;14.242;2022-07-06T03:23:05;32.42;;;9.35;;
39896;SDS011;25567;48.276;14.242;2022-07-06T03:25:32;16.98;;;8.40;;
39896;SDS011;25567;48.276;14.242;2022-07-06T03:27:59;16.90;;;8.63;;
39896;SDS011;25567;48.276;14.242;2022-07-06T03:30:26;31.75;;;9.85;;
39896;SDS011;25567;48.276;14.242;2022-07-06T03:32:52;33.90;;;9.00;;
39896;SDS011;25567;48.276;14.242;2022-07-06T03:35:19;30.40;;;10.52;;
39896;SDS011;25567;48.276;14.242;2022-07-06T03:37:46;31.83;;;10.45;;
39896;SDS011;25567;48.276;14.242;2022-07-06T03:40:13;25.38;;;11.40;;
39896;SDS011;25567;48.276;14.242;2022-07-06T03:42:41;23.75;;;11.60;;
39896;SDS011;25567;48.276;14.242;2022-07-06T03:45:08;20.13;;;11.88;;
39896;SDS011;25567;48.276;14.242;2022-07-06T03:47:35;21.70;;;11.40;;
39896;SDS011;25567;48.276;14.242;2022-07-06T03:50:02;18.65;;;10.63;;
39896;SDS011;25567;48.276;14.242;2022-07-06T03:52:29;19.33;;;11.50;;
39896;SDS011;25567;48.276;14.242;2022-07-06T03:54:55;20.85;;;10.95;;
39896;SDS011;25567;48.276;14.242;2022-07-06T03:57:22;21.27;;;10.48;;
39896;SDS011;25567;48.276;14.242;2022-07-06T03:59:49;27.08;;;10.73;;
39896;SDS011;25567;48.276;14.242;2022-07-06T04:02:16;26.38;;;10.77;;
39896;SDS011;25567;48.276;14.242;2022-07-06T04:04:43;29.02;;;10.18;;
39896;SDS011;25567;48.276;14.242;2022-07-06T04:07:09;23.90;;;10.93;;
39896;SDS011;25567;48.276;14.242;2022-07-06T04:09:36;16.75;;;10.35;;
39896;SDS011;25567;48.276;14.242;2022-07-06T04:12:03;19.60;;;9.90;;
39896;SDS011;25567;48.276;14.242;2022-07-06T04:14:30;20.75;;;11.05;;
39896;SDS011;25567;48.276;14.242;2022-07-06T04:16:56;27.13;;;10.93;;
39896;SDS011;25567;48.276;14.242;2022-07-06T04:19:23;25.98;;;10.18;;
39896;SDS011;25567;48.276;14.242;2022-07-06T04:21:50;17.80;;;10.23;;
39896;SDS011;25567;48.276;14.242;2022-07-06T04:24:16;16.80;;;11.00;;
39896;SDS011;25567;48.276;14.242;2022-07-06T04:26:43;27.48;;;11.70;;
39896;SDS011;25567;48.276;14.242;2022-07-06T04:29:10;20.75;;;11.90;;
39896;SDS011;25567;48.276;14.242;2022-07-06T04:31:37;24.63;;;12.25;;
39896;SDS011;25567;48.276;14.242;2022-07-06T04:34:04;28.45;;;13.15;;
39896;SDS011;25567;48.276;14.242;2022-07-06T04:36:31;23.23;;;12.57;;
39896;SDS011;25567;48.276;14.242;2022-07-06T04:38:58;32.22;;;15.98;;
39896;SDS011;25567;48.276;14.242;2022-07-06T04:41:25;24.45;;;12.55;;
39896;SDS011;25567;48.276;14.242;2022-07-06T04:43:52;23.85;;;13.00;;
39896;SDS011;25567;48.276;14.242;2022-07-06T04:46:18;27.08;;;14.30;;
39896;SDS011;25567;48.276;14.242;2022-07-06T04:48:46;22.40;;;13.90;;
39896;SDS011;25567;48.276;14.242;2022-07-06T04:51:12;27.48;;;15.18;;
39896;SDS011;25567;48.276;14.242;2022-07-06T04:53:40;25.80;;;16.40;;
39896;SDS011;25567;48.276;14.242;2022-07-06T04:56:07;26.80;;;17.33;;
39896;SDS011;25567;48.276;14.242;2022-07-06T04:58:33;28.67;;;18.27;;
39896;SDS011;25567;48.276;14.242;2022-07-06T05:01:00;26.48;;;16.85;;
39896;SDS011;25567;48.276;14.242;2022-07-06T05:03:27;24.95;;;17.60;;
39896;SDS011;25567;48.276;14.242;2022-07-06T05:05:54;30.13;;;17.67;;
39896;SDS011;25567;48.276;14.242;2022-07-06T05:08:21;28.00;;;16.90;;
39896;SDS011;25567;48.276;14.242;2022-07-06T05:10:51;29.67;;;17.00;;
39896;SDS011;25567;48.276;14.242;2022-07-06T05:13:18;27.77;;;16.90;;
39896;SDS011;25567;48.276;14.242;2022-07-06T05:15:45;30.63;;;16.92;;
39896;SDS011;25567;48.276;14.242;2022-07-06T05:18:11;23.67;;;15.73;;
39896;SDS011;25567;48.276;14.242;2022-07-06T05:20:39;25.10;;;15.02;;
39896;SDS011;25567;48.276;14.242;2022-07-06T05:23:05;31.10;;;15.95;;
39896;SDS011;25567;48.276;14.242;2022-07-06T05:25:32;26.13;;;16.02;;
39896;SDS011;25567;48.276;14.242;2022-07-06T05:27:59;22.30;;;17.30;;
39896;SDS011;25567;48.276;14.242;2022-07-06T05:30:29;21.42;;;15.98;;
39896;SDS011;25567;48.276;14.242;2022-07-06T05:32:56;25.85;;;14.93;;
39896;SDS011;25567;48.276;14.242;2022-07-06T05:35:22;20.73;;;14.07;;
39896;SDS011;25567;48.276;14.242;2022-07-06T05:40:36;21.42;;;14.32;;
39896;SDS011;25567;48.276;14.242;2022-07-06T05:43:03;26.38;;;16.13;;
39896;SDS011;25567;48.276;14.242;2022-07-06T05:45:30;24.80;;;15.50;;
39896;SDS011;25567;48.276;14.242;2022-07-06T05:47:57;23.92;;;15.90;;
39896;SDS011;25567;48.276;14.242;2022-07-06T05:50:39;21.30;;;14.50;;
39896;SDS011;25567;48.276;14.242;2022-07-06T05:53:06;24.60;;;14.68;;
39896;SDS011;25567;48.276;14.242;2022-07-06T05:55:44;22.27;;;13.15;;
39896;SDS011;25567;48.276;14.242;2022-07-06T05:58:11;18.38;;;13.48;;
39896;SDS011;25567;48.276;14.242;2022-07-06T06:00:38;24.05;;;14.18;;
39896;SDS011;25567;48.276;14.242;2022-07-06T06:03:05;23.10;;;15.23;;
39896;SDS011;25567;48.276;14.242;2022-07-06T06:05:34;25.50;;;16.25;;
39896;SDS011;25567;48.276;14.242;2022-07-06T06:08:01;22.33;;;13.65;;
39896;SDS011;25567;48.276;14.242;2022-07-06T06:10:28;24.27;;;14.35;;
39896;SDS011;25567;48.276;14.242;2022-07-06T06:12:55;21.80;;;13.40;;
39896;SDS011;25567;48.276;14.242;2022-07-06T06:15:21;21.67;;;12.27;;
39896;SDS011;25567;48.276;14.242;2022-07-06T06:17:48;19.60;;;13.52;;
39896;SDS011;25567;48.276;14.242;2022-07-06T06:20:15;21.15;;;12.45;;
39896;SDS011;25567;48.276;14.242;2022-07-06T06:22:43;19.83;;;12.02;;
39896;SDS011;25567;48.276;14.242;2022-07-06T06:25:13;18.38;;;11.30;;
39896;SDS011;25567;48.276;14.242;2022-07-06T06:27:40;16.42;;;9.02;;
39896;SDS011;25567;48.276;14.242;2022-07-06T06:30:07;14.38;;;7.97;;
39896;SDS011;25567;48.276;14.242;2022-07-06T06:32:35;13.27;;;9.40;;
39896;SDS011;25567;48.276;14.242;2022-07-06T06:35:02;11.48;;;7.88;;
39896;SDS011;25567;48.276;14.242;2022-07-06T06:37:29;9.80;;;6.00;;
39896;SDS011;25567;48.276;14.242;2022-07-06T06:39:56;18.02;;;7.15;;
39896;SDS011;25567;48.276;14.242;2022-07-06T06:42:23;14.80;;;7.10;;
39896;SDS011;25567;48.276;14.242;2022-07-06T06:44:50;16.13;;;6.75;;
39896;SDS011;25567;48.276;14.242;2022-07-06T06:47:17;10.68;;;6.75;;
39896;SDS011;25567;48.276;14.242;2022-07-06T06:49:45;16.58;;;7.60;;
39896;SDS011;25567;48.276;14.242;2022-07-06T06:52:13;16.23;;;7.57;;
39896;SDS011;25567;48.276;14.242;2022-07-06T06:55:00;14.63;;;7.82;;
39896;SDS011;25567;48.276;14.242;2022-07-06T06:57:27;12.68;;;7.60;;
39896;SDS011;25567;48.276;14.242;2022-07-06T06:59:55;13.43;;;8.30;;
39896;SDS011;25567;48.276;14.242;2022-07-06T07:02:22;12.00;;;7.85;;
39896;SDS011;25567;48.276;14.242;2022-07-06T07:04:49;13.63;;;7.43;;
39896;SDS011;25567;48.276;14.242;2022-07-06T07:07:15;11.52;;;7.95;;
39896;SDS011;25567;48.276;14.242;2022-07-06T07:09:42;11.25;;;7.60;;
39896;SDS011;25567;48.276;14.242;2022-07-06T07:12:09;18.05;;;7.80;;
39896;SDS011;25567;48.276;14.242;2022-07-06T07:14:38;12.38;;;7.78;;
39896;SDS011;25567;48.276;14.242;2022-07-06T07:17:05;10.75;;;7.10;;
39896;SDS011;25567;48.276;14.242;2022-07-06T07:19:31;9.07;;;6.65;;
39896;SDS011;25567;48.276;14.242;2022-07-06T07:21:58;10.18;;;5.30;;
39896;SDS011;25567;48.276;14.242;2022-07-06T07:24:26;13.65;;;5.65;;
39896;SDS011;25567;48.276;14.242;2022-07-06T07:26:53;7.20;;;5.13;;
39896;SDS011;25567;48.276;14.242;2022-07-06T07:29:19;7.57;;;4.88;;
39896;SDS011;25567;48.276;14.242;2022-07-06T07:31:46;9.10;;;4.70;;
39896;SDS011;25567;48.276;14.242;2022-07-06T07:34:13;7.13;;;3.47;;
39896;SDS011;25567;48.276;14.242;2022-07-06T07:36:40;7.28;;;4.20;;
39896;SDS011;25567;48.276;14.242;2022-07-06T07:39:07;7.68;;;3.50;;
39896;SDS011;25567;48.276;14.242;2022-07-06T07:41:33;7.03;;;3.08;;
39896;SDS011;25567;48.276;14.242;2022-07-06T07:44:00;7.15;;;3.63;;
39896;SDS011;25567;48.276;14.242;2022-07-06T07:46:27;5.05;;;3.25;;
39896;SDS011;25567;48.276;14.242;2022-07-06T07:48:54;6.22;;;3.28;;
39896;SDS011;25567;48.276;14.242;2022-07-06T07:51:21;8.68;;;2.95;;
39896;SDS011;25567;48.276;14.242;2022-07-06T07:53:48;3.85;;;2.80;;
39896;SDS011;25567;48.276;14.242;2022-07-06T07:56:14;7.57;;;2.90;;
39896;SDS011;25567;48.276;14.242;2022-07-06T07:58:41;3.90;;;3.00;;
39896;SDS011;25567;48.276;14.242;2022-07-06T08:01:08;3.33;;;2.60;;
39896;SDS011;25567;48.276;14.242;2022-07-06T08:03:35;6.03;;;2.45;;
39896;SDS011;25567;48.276;14.242;2022-07-06T08:06:01;8.23;;;2.70;;
39896;SDS011;25567;48.276;14.242;2022-07-06T08:08:28;5.65;;;3.03;;
39896;SDS011;25567;48.276;14.242;2022-07-06T08:10:55;7.55;;;2.90;;
39896;SDS011;25567;48.276;14.242;2022-07-06T08:16:08;9.38;;;2.70;;
39896;SDS011;25567;48.276;14.242;2022-07-06T08:18:36;6.20;;;2.47;;
39896;SDS011;25567;48.276;14.242;2022-07-06T08:21:03;5.15;;;2.80;;
39896;SDS011;25567;48.276;14.242;2022-07-06T08:23:50;4.63;;;2.88;;
39896;SDS011;25567;48.276;14.242;2022-07-06T08:26:17;10.00;;;3.10;;
39896;SDS011;25567;48.276;14.242;2022-07-06T08:28:44;4.68;;;2.55;;
39896;SDS011;25567;48.276;14.242;2022-07-06T08:31:11;6.63;;;2.60;;
39896;SDS011;25567;48.276;14.242;2022-07-06T08:33:58;7.20;;;2.65;;
39896;SDS011;25567;48.276;14.242;2022-07-06T08:36:26;7.55;;;2.63;;
39896;SDS011;25567;48.276;14.242;2022-07-06T08:38:53;5.30;;;2.40;;
39896;SDS011;25567;48.276;14.242;2022-07-06T08:41:21;4.55;;;2.58;;
39896;SDS011;25567;48.276;14.242;2022-07-06T08:43:52;3.90;;;2.20;;
39896;SDS011;25567;48.276;14.242;2022-07-06T08:46:20;6.20;;;2.20;;
39896;SDS011;25567;48.276;14.242;2022-07-06T08:48:48;6.40;;;2.60;;
39896;SDS011;25567;48.276;14.242;2022-07-06T08:51:15;5.25;;;3.00;;
39896;SDS011;25567;48.276;14.242;2022-07-06T08:53:42;7.45;;;2.65;;
39896;SDS011;25567;48.276;14.242;2022-07-06T08:56:10;4.40;;;2.47;;
39896;SDS011;25567;48.276;14.242;2022-07-06T08:58:37;6.22;;;2.33;;
39896;SDS011;25567;48.276;14.242;2022-07-06T09:01:09;4.10;;;2.60;;
39896;SDS011;25567;48.276;14.242;2022-07-06T09:03:40;4.22;;;2.40;;
39896;SDS011;25567;48.276;14.242;2022-07-06T09:06:08;4.82;;;2.47;;
39896;SDS011;25567;48.276;14.242;2022-07-06T09:08:35;4.53;;;2.67;;
39896;SDS011;25567;48.276;14.242;2022-07-06T09:11:03;2.67;;;2.20;;
39896;SDS011;25567;48.276;14.242;2022-07-06T09:13:30;5.63;;;2.67;;
39896;SDS011;25567;48.276;14.242;2022-07-06T09:16:08;3.85;;;2.42;;
39896;SDS011;25567;48.276;14.242;2022-07-06T09:18:56;5.05;;;2.42;;
39896;SDS011;25567;48.276;14.242;2022-07-06T09:23:54;2.70;;;2.22;;
39896;SDS011;25567;48.276;14.242;2022-07-06T09:26:23;6.00;;;2.40;;
39896;SDS011;25567;48.276;14.242;2022-07-06T09:28:50;6.53;;;2.83;;
39896;SDS011;25567;48.276;14.242;2022-07-06T09:31:21;6.10;;;2.35;;
39896;SDS011;25567;48.276;14.242;2022-07-06T09:33:56;3.58;;;2.28;;
39896;SDS011;25567;48.276;14.242;2022-07-06T09:36:40;7.28;;;2.63;;
39896;SDS011;25567;48.276;14.242;2022-07-06T09:41:52;3.25;;;2.22;;
39896;SDS011;25567;48.276;14.242;2022-07-06T09:46:50;3.50;;;2.40;;
39896;SDS011;25567;48.276;14.242;2022-07-06T09:49:19;7.75;;;2.58;;
39896;SDS011;25567;48.276;14.242;2022-07-06T09:51:47;7.32;;;2.53;;
39896;SDS011;25567;48.276;14.242;2022-07-06T09:54:16;5.43;;;2.53;;
39896;SDS011;25567;48.276;14.242;2022-07-06T09:56:44;6.10;;;2.60;;
39896;SDS011;25567;48.276;14.242;2022-07-06T09:59:15;7.93;;;2.83;;
39896;SDS011;25567;48.276;14.242;2022-07-06T10:01:42;5.57;;;2.45;;
39896;SDS011;25567;48.276;14.242;2022-07-06T10:04:10;2.92;;;2.03;;
39896;SDS011;25567;48.276;14.242;2022-07-06T10:06:40;9.48;;;3.00;;
39896;SDS011;25567;48.276;14.242;2022-07-06T10:09:08;8.60;;;2.55;;
39896;SDS011;25567;48.276;14.242;2022-07-06T10:11:39;10.10;;;2.88;;
39896;SDS011;25567;48.276;14.242;2022-07-06T10:14:08;5.13;;;2.55;;
39896;SDS011;25567;48.276;14.242;2022-07-06T10:16:40;11.20;;;2.78;;
39896;SDS011;25567;48.276;14.242;2022-07-06T10:19:09;3.95;;;2.22;;
39896;SDS011;25567;48.276;14.242;2022-07-06T10:21:37;4.80;;;2.55;;
39896;SDS011;25567;48.276;14.242;2022-07-06T10:24:05;7.75;;;2.30;;
39896;SDS011;25567;48.276;14.242;2022-07-06T10:26:33;8.60;;;2.33;;
39896;SDS011;25567;48.276;14.242;2022-07-06T10:29:02;7.85;;;2.20;;
39896;SDS011;25567;48.276;14.242;2022-07-06T10:31:30;3.53;;;2.50;;
39896;SDS011;25567;48.276;14.242;2022-07-06T10:33:59;3.88;;;2.00;;
39896;SDS011;25567;48.276;14.242;2022-07-06T10:36:28;3.58;;;2.40;;
39896;SDS011;25567;48.276;14.242;2022-07-06T10:38:56;2.97;;;2.00;;
39896;SDS011;25567;48.276;14.242;2022-07-06T10:44:15;4.93;;;1.98;;
39896;SDS011;25567;48.276;14.242;2022-07-06T10:49:27;3.92;;;1.95;;
39896;SDS011;25567;48.276;14.242;2022-07-06T10:52:17;8.48;;;2.28;;
39896;SDS011;25567;48.276;14.242;2022-07-06T10:54:44;7.05;;;1.98;;
39896;SDS011;25567;48.276;14.242;2022-07-06T10:57:12;3.63;;;1.95;;
39896;SDS011;25567;48.276;14.242;2022-07-06T10:59:58;7.40;;;2.40;;
39896;SDS011;25567;48.276;14.242;2022-07-06T11:02:27;4.33;;;1.93;;
39896;SDS011;25567;48.276;14.242;2022-07-06T11:05:05;5.25;;;2.25;;
39896;SDS011;25567;48.276;14.242;2022-07-06T11:10:27;2.47;;;1.90;;
39896;SDS011;25567;48.276;14.242;2022-07-06T11:13:01;5.35;;;1.98;;
39896;SDS011;25567;48.276;14.242;2022-07-06T11:15:47;7.03;;;2.08;;
39896;SDS011;25567;48.276;14.242;2022-07-06T11:18:18;4.53;;;2.15;;
39896;SDS011;25567;48.276;14.242;2022-07-06T11:23:44;5.53;;;2.00;;
39896;SDS011;25567;48.276;14.242;2022-07-06T11:26:12;8.15;;;1.67;;
39896;SDS011;25567;48.276;14.242;2022-07-06T11:28:40;2.78;;;1.75;;
39896;SDS011;25567;48.276;14.242;2022-07-06T11:31:07;6.05;;;1.90;;
39896;SDS011;25567;48.276;14.242;2022-07-06T11:33:33;4.50;;;1.92;;
39896;SDS011;25567;48.276;14.242;2022-07-06T11:38:45;7.47;;;1.63;;
39896;SDS011;25567;48.276;14.242;2022-07-06T11:41:13;4.85;;;2.30;;
39896;SDS011;25567;48.276;14.242;2022-07-06T11:43:41;4.55;;;1.58;;
39896;SDS011;25567;48.276;14.242;2022-07-06T11:48:55;3.85;;;2.10;;
39896;SDS011;25567;48.276;14.242;2022-07-06T11:51:29;2.42;;;1.77;;
39896;SDS011;25567;48.276;14.242;2022-07-06T11:53:57;3.20;;;2.05;;
39896;SDS011;25567;48.276;14.242;2022-07-06T11:56:27;4.50;;;1.77;;
39896;SDS011;25567;48.276;14.242;2022-07-06T11:58:56;5.65;;;1.73;;
39896;SDS011;25567;48.276;14.242;2022-07-06T12:01:24;2.90;;;1.80;;
39896;SDS011;25567;48.276;14.242;2022-07-06T12:03:58;3.33;;;1.55;;
39896;SDS011;25567;48.276;14.242;2022-07-06T12:06:27;2.92;;;1.60;;
39896;SDS011;25567;48.276;14.242;2022-07-06T12:08:55;6.90;;;1.92;;
39896;SDS011;25567;48.276;14.242;2022-07-06T12:11:28;4.90;;;1.92;;
39896;SDS011;25567;48.276;14.242;2022-07-06T12:13:59;7.38;;;1.70;;
39896;SDS011;25567;48.276;14.242;2022-07-06T12:16:30;5.07;;;2.00;;
39896;SDS011;25567;48.276;14.242;2022-07-06T12:19:00;4.90;;;1.90;;
39896;SDS011;25567;48.276;14.242;2022-07-06T12:21:33;5.53;;;2.00;;
39896;SDS011;25567;48.276;14.242;2022-07-06T12:24:01;2.83;;;1.60;;
39896;SDS011;25567;48.276;14.242;2022-07-06T12:26:28;6.60;;;1.73;;
39896;SDS011;25567;48.276;14.242;2022-07-06T12:29:05;3.50;;;1.90;;
39896;SDS011;25567;48.276;14.242;2022-07-06T12:31:40;8.82;;;2.08;;
39896;SDS011;25567;48.276;14.242;2022-07-06T12:34:13;3.25;;;1.80;;
39896;SDS011;25567;48.276;14.242;2022-07-06T12:36:43;4.68;;;1.70;;
39896;SDS011;25567;48.276;14.242;2022-07-06T12:39:15;4.85;;;1.95;;
39896;SDS011;25567;48.276;14.242;2022-07-06T12:44:13;5.82;;;1.75;;
39896;SDS011;25567;48.276;14.242;2022-07-06T12:46:42;6.75;;;1.60;;
39896;SDS011;25567;48.276;14.242;2022-07-06T12:49:11;5.30;;;1.88;;
39896;SDS011;25567;48.276;14.242;2022-07-06T12:54:24;1.90;;;1.65;;
39896;SDS011;25567;48.276;14.242;2022-07-06T12:57:03;2.38;;;1.58;;
39896;SDS011;25567;48.276;14.242;2022-07-06T12:59:30;2.20;;;1.65;;
39896;SDS011;25567;48.276;14.242;2022-07-06T13:01:58;2.97;;;1.80;;
39896;SDS011;25567;48.276;14.242;2022-07-06T13:04:27;3.15;;;1.55;;
39896;SDS011;25567;48.276;14.242;2022-07-06T13:06:55;5.63;;;1.90;;
39896;SDS011;25567;48.276;14.242;2022-07-06T13:09:26;7.22;;;1.75;;
39896;SDS011;25567;48.276;14.242;2022-07-06T13:11:57;4.90;;;1.70;;
39896;SDS011;25567;48.276;14.242;2022-07-06T13:14:24;2.63;;;1.80;;
39896;SDS011;25567;48.276;14.242;2022-07-06T13:16:50;4.82;;;1.50;;
39896;SDS011;25567;48.276;14.242;2022-07-06T13:19:17;6.78;;;1.58;;
39896;SDS011;25567;48.276;14.242;2022-07-06T13:21:44;5.28;;;2.10;;
39896;SDS011;25567;48.276;14.242;2022-07-06T13:24:11;2.42;;;1.60;;
39896;SDS011;25567;48.276;14.242;2022-07-06T13:26:38;3.28;;;1.63;;
39896;SDS011;25567;48.276;14.242;2022-07-06T13:29:07;3.28;;;1.70;;
39896;SDS011;25567;48.276;14.242;2022-07-06T13:31:38;6.15;;;1.58;;
39896;SDS011;25567;48.276;14.242;2022-07-06T13:34:06;4.80;;;1.85;;
39896;SDS011;25567;48.276;14.242;2022-07-06T13:36:34;5.60;;;1.67;;
39896;SDS011;25567;48.276;14.242;2022-07-06T13:39:02;3.40;;;1.80;;
39896;SDS011;25567;48.276;14.242;2022-07-06T13:41:29;4.95;;;1.92;;
39896;SDS011;25567;48.276;14.242;2022-07-06T13:43:56;4.50;;;1.77;;
39896;SDS011;25567;48.276;14.242;2022-07-06T13:46:22;4.38;;;2.10;;
39896;SDS011;25567;48.276;14.242;2022-07-06T13:48:49;3.00;;;2.28;;
39896;SDS011;25567;48.276;14.242;2022-07-06T13:51:16;7.82;;;2.10;;
39896;SDS011;25567;48.276;14.242;2022-07-06T13:53:43;3.15;;;2.03;;
39896;SDS011;25567;48.276;14.242;2022-07-06T13:56:10;4.15;;;2.05;;
39896;SDS011;25567;48.276;14.242;2022-07-06T13:58:37;4.07;;;1.90;;
39896;SDS011;25567;48.276;14.242;2022-07-06T14:01:05;4.18;;;2.58;;
39896;SDS011;25567;48.276;14.242;2022-07-06T14:03:32;2.35;;;1.90;;
39896;SDS011;25567;48.276;14.242;2022-07-06T14:06:00;2.95;;;1.90;;
39896;SDS011;25567;48.276;14.242;2022-07-06T14:08:28;4.85;;;1.73;;
39896;SDS011;25567;48.276;14.242;2022-07-06T14:10:55;7.70;;;1.80;;
39896;SDS011;25567;48.276;14.242;2022-07-06T14:13:23;4.18;;;1.90;;
39896;SDS011;25567;48.276;14.242;2022-07-06T14:15:50;3.00;;;1.80;;
39896;SDS011;25567;48.276;14.242;2022-07-06T14:18:16;5.93;;;1.80;;
39896;SDS011;25567;48.276;14.242;2022-07-06T14:20:44;3.45;;;1.85;;
39896;SDS011;25567;48.276;14.242;2022-07-06T14:23:12;7.45;;;1.80;;
39896;SDS011;25567;48.276;14.242;2022-07-06T14:25:40;3.08;;;1.88;;
39896;SDS011;25567;48.276;14.242;2022-07-06T14:28:07;5.13;;;1.90;;
39896;SDS011;25567;48.276;14.242;2022-07-06T14:30:35;2.97;;;1.70;;
39896;SDS011;25567;48.276;14.242;2022-07-06T14:33:03;1.77;;;1.38;;
39896;SDS011;25567;48.276;14.242;2022-07-06T14:35:35;4.20;;;2.00;;
39896;SDS011;25567;48.276;14.242;2022-07-06T14:38:03;1.90;;;1.50;;
39896;SDS011;25567;48.276;14.242;2022-07-06T14:40:30;2.50;;;1.55;;
39896;SDS011;25567;48.276;14.242;2022-07-06T14:42:58;2.80;;;1.70;;
39896;SDS011;25567;48.276;14.242;2022-07-06T14:45:25;2.78;;;2.08;;
39896;SDS011;25567;48.276;14.242;2022-07-06T14:47:52;2.22;;;1.70;;
39896;SDS011;25567;48.276;14.242;2022-07-06T14:50:19;5.68;;;1.70;;
39896;SDS011;25567;48.276;14.242;2022-07-06T14:52:46;8.38;;;2.20;;
39896;SDS011;25567;48.276;14.242;2022-07-06T14:55:13;4.18;;;1.70;;
39896;SDS011;25567;48.276;14.242;2022-07-06T14:57:40;4.25;;;1.55;;
39896;SDS011;25567;48.276;14.242;2022-07-06T15:00:08;3.90;;;1.83;;
39896;SDS011;25567;48.276;14.242;2022-07-06T15:02:36;6.38;;;1.98;;
39896;SDS011;25567;48.276;14.242;2022-07-06T15:05:03;6.25;;;1.60;;
39896;SDS011;25567;48.276;14.242;2022-07-06T15:07:30;5.50;;;1.65;;
39896;SDS011;25567;48.276;14.242;2022-07-06T15:09:57;2.58;;;1.67;;